Blue Bank, Kentucky
Current Conditions -  °F | °C
As of 10:15 PM on Monday 26 Jan 2015 (Local Time) from KFGX Reporting Station
Overcast Overcast  
Wind Chill: 21°   Ceiling: 2800
Heat Index: 21°   Visibility: 10mi
Dew Point: 17°   Wind: 3mph
Humidity: 85%   Direction: 60°ENE
Pressure: 29.95"   Gusts: NA
Location:  38.436°N, 83.6931°W
Report Text: KFGX 270315Z AUTO 06003KT 10SM OVC028 M06/M08 A2995 RMK AO2 T10601081
Loading
Personal Weather Stations






























Interactive Weather Map New forecast layout! Learn more

10-Day Weather Forecast

Advertisements
Track Severe Weather on mobile